| time (UTC) | temp F | wind direction | speed MPH | gust MPH | rain 1hr in | rain 24hr in | rain mn in | humidity % | barometer mb |
| 20260905193749 | 95 | 241 | 2.0 | 7.0 | 0.00 | 0.57 | 0.00 | 53 | 1013.1 |
| 20260905193456 | 95 | 259 | 3.0 | 8.0 | 0.00 | 0.57 | 0.00 | 53 | 1013.1 |
| 20260905192055 | 94 | 252 | 3.0 | 7.0 | 0.00 | 0.57 | 0.00 | 59 | 1013.4 |
| 20260905191457 | 94 | 254 | 2.0 | 6.0 | 0.00 | 0.57 | 0.00 | 55 | 1013.5 |
| 20260905190744 | 94 | 267 | 2.0 | 7.0 | 0.00 | 0.57 | 0.00 | 55 | 1013.5 |
| 20260905190028 | 94 | 250 | 2.0 | 6.0 | 0.00 | 0.57 | 0.00 | 53 | 1013.6 |
| 20260905185856 | 94 | 250 | 2.0 | 6.0 | 0.00 | 0.57 | 0.00 | 53 | 1013.6 |
| 20260905185101 | 93 | 261 | 2.0 | 7.0 | 0.00 | 0.57 | 0.00 | 60 | 1013.7 |
| 20260905184903 | 93 | 245 | 2.0 | 8.0 | 0.00 | 0.57 | 0.00 | 58 | 1013.8 |
| 20260905184017 | 93 | 253 | 2.0 | 8.0 | 0.00 | 0.57 | 0.00 | 56 | 1013.9 |
| 20260905183841 | 93 | 253 | 2.0 | 8.0 | 0.00 | 0.57 | 0.00 | 56 | 1013.9 |
| 20260905183549 | 93 | 253 | 2.0 | 8.0 | 0.00 | 0.57 | 0.00 | 56 | 1013.9 |
| 20260905183133 | 93 | 254 | 3.0 | 8.0 | 0.00 | 0.57 | 0.00 | 55 | 1013.8 |
| 20260905180957 | 91 | 248 | 2.0 | 8.0 | 0.00 | 0.57 | 0.00 | 57 | 1013.9 |
| 20260905175919 | 90 | 246 | 3.0 | 9.0 | 0.00 | 0.57 | 0.00 | 57 | 1013.9 |
| 20260905175500 | 90 | 260 | 4.0 | 9.0 | 0.00 | 0.57 | 0.00 | 57 | 1014.0 |
| 20260905174501 | 89 | 242 | 3.0 | 9.0 | 0.00 | 0.57 | 0.00 | 64 | 1014.1 |
| 20260905172037 | 87 | 244 | 3.0 | 7.0 | 0.00 | 0.57 | 0.00 | 63 | 1014.1 |
| 20260905170524 | 84 | 205 | 2.0 | 6.0 | 0.00 | 0.57 | 0.00 | 63 | 1014.5 |
| 20260905165625 | 84 | 202 | 2.0 | 7.0 | 0.00 | 0.57 | 0.00 | 64 | 1014.7 |
| 20260905163746 | 85 | 221 | 1.0 | 8.0 | 0.00 | 0.57 | 0.00 | 63 | 1015.0 |
| 20260905160846 | 85 | 163 | 3.0 | 9.0 | 0.00 | 0.57 | 0.00 | 61 | 1015.4 |
| 20260905154038 | 82 | 202 | 2.0 | 7.0 | 0.00 | 0.57 | 0.00 | 67 | 1015.1 |
| 20260905151933 | 81 | 162 | 4.0 | 10.0 | 0.00 | 0.57 | 0.00 | 64 | 1014.7 |
| 20260905151043 | 80 | 164 | 3.0 | 9.0 | 0.00 | 0.57 | 0.00 | 66 | 1014.7 |
| 20260905151041 | 80 | 134 | 3.0 | 8.0 | 0.00 | 0.57 | 0.00 | 66 | 1014.7 |
| 20260905150937 | 80 | 134 | 3.0 | 8.0 | 0.00 | 0.57 | 0.00 | 66 | 1014.7 |
| 20260905145626 | 80 | 109 | 4.0 | 11.0 | 0.00 | 0.57 | 0.00 | 69 | 1014.7 |
| 20260905145441 | 79 | 147 | 4.0 | 11.0 | 0.00 | 0.57 | 0.00 | 67 | 1015.0 |
| 20260905144437 | 79 | 165 | 3.0 | 8.0 | 0.00 | 0.57 | 0.00 | 70 | 1015.1 |
| 20260905143459 | 78 | 94 | 2.0 | 8.0 | 0.00 | 0.57 | 0.00 | 70 | 1015.2 |
| 20260905142958 | 78 | 108 | 4.0 | 8.0 | 0.00 | 0.57 | 0.00 | 71 | 1015.2 |
| 20260905141920 | 78 | 154 | 3.0 | 7.0 | 0.00 | 0.57 | 0.00 | 76 | 1015.3 |
| 20260905141219 | 77 | 186 | 3.0 | 12.0 | 0.00 | 0.57 | 0.00 | 72 | 1015.2 |
| 20260905140853 | 77 | 178 | 3.0 | 13.0 | 0.00 | 0.57 | 0.00 | 72 | 1015.1 |
| 20260905135552 | 76 | 152 | 4.0 | 11.0 | 0.00 | 0.57 | 0.00 | 74 | 1015.1 |
| 20260905135419 | 76 | 119 | 5.0 | 11.0 | 0.00 | 0.57 | 0.00 | 74 | 1015.3 |
| 20260905134053 | 75 | 83 | 3.0 | 10.0 | 0.00 | 0.57 | 0.00 | 79 | 1015.5 |
| 20260905133418 | 75 | 96 | 3.0 | 9.0 | 0.00 | 0.57 | 0.00 | 76 | 1015.6 |
| 20260905132520 | 74 | 103 | 2.0 | 7.0 | 0.00 | 0.57 | 0.00 | 78 | 1015.9 |
| 20260905132348 | 74 | 103 | 2.0 | 7.0 | 0.00 | 0.57 | 0.00 | 78 | 1015.9 |
| 20260905131403 | 74 | 123 | 3.0 | 11.0 | 0.00 | 0.57 | 0.00 | 78 | 1015.8 |
| 20260905125934 | 73 | 102 | 3.0 | 9.0 | 0.00 | 0.57 | 0.00 | 79 | 1015.7 |
| 20260905125228 | 72 | 98 | 2.0 | 9.0 | 0.00 | 0.57 | 0.00 | 79 | 1015.6 |
| 20260905124525 | 72 | 108 | 1.0 | 8.0 | 0.00 | 0.57 | 0.00 | 80 | 1015.6 |
| 20260905123524 | 71 | 113 | 1.0 | 10.0 | 0.00 | 0.57 | 0.00 | 80 | 1015.1 |
| 20260905123431 | 71 | 113 | 1.0 | 10.0 | 0.00 | 0.57 | 0.00 | 80 | 1015.1 |
| 20260905123042 | 71 | 163 | 3.0 | 10.0 | 0.00 | 0.57 | 0.00 | 80 | 1015.2 |
| 20260905121955 | 71 | 95 | 3.0 | 10.0 | 0.00 | 0.57 | 0.00 | 79 | 1015.4 |
| 20260905121424 | 71 | 160 | 2.0 | 7.0 | 0.00 | 0.57 | 0.00 | 79 | 1015.4 |
| 20260905115457 | 71 | 117 | 2.0 | 4.0 | 0.00 | 0.57 | 0.00 | 79 | 1015.3 |
| 20260905112919 | 71 | 56 | 2.0 | 6.0 | 0.00 | 0.57 | 0.00 | 80 | 1015.5 |
| 20260905112340 | 71 | 53 | 4.0 | 7.0 | 0.00 | 0.57 | 0.00 | 80 | 1015.7 |
| 20260905112016 | 71 | 55 | 4.0 | 7.0 | 0.00 | 0.57 | 0.00 | 80 | 1015.6 |
| 20260905111856 | 71 | 55 | 4.0 | 7.0 | 0.00 | 0.57 | 0.00 | 80 | 1015.6 |
| 20260905111222 | 71 | 46 | 3.0 | 7.0 | 0.00 | 0.57 | 0.00 | 80 | 1015.5 |
| 20260905110353 | 71 | 53 | 3.0 | 9.0 | 0.00 | 0.57 | 0.00 | 80 | 1015.4 |
| 20260905105113 | 71 | 53 | 3.0 | 8.0 | 0.00 | 0.57 | 0.00 | 81 | 1015.3 |
| 20260905104941 | 71 | 52 | 5.0 | 11.0 | 0.00 | 0.57 | 0.00 | 81 | 1015.5 |
| 20260905104028 | 71 | 63 | 5.0 | 11.0 | 0.00 | 0.57 | 0.00 | 80 | 1015.6 |
| 20260905103519 | 71 | 57 | 6.0 | 11.0 | 0.00 | 0.57 | 0.00 | 80 | 1015.6 |
| 20260905102951 | 71 | 58 | 5.0 | 14.0 | 0.00 | 0.57 | 0.00 | 80 | 1015.6 |
| 20260905101651 | 72 | 63 | 7.0 | 15.0 | 0.00 | 0.57 | 0.00 | 79 | 1015.4 |
| 20260905101326 | 72 | 67 | 7.0 | 15.0 | 0.00 | 0.57 | 0.00 | 80 | 1015.3 |
| 20260905095531 | 74 | 62 | 8.0 | 14.0 | 0.00 | 0.57 | 0.00 | 84 | 1015.0 |
| 20260905095400 | 75 | 217 | 1.0 | 3.0 | 0.00 | 0.57 | 0.00 | 88 | 1014.4 |
| 20260905094458 | 75 | 0 | 0.0 | 1.0 | 0.00 | 0.57 | 0.00 | 88 | 1014.0 |
| 20260905093701 | 75 | 0 | 0.0 | 1.0 | 0.00 | 0.57 | 0.00 | 88 | 1014.0 |
| 20260905093318 | 75 | 0 | 0.0 | 1.0 | 0.00 | 0.57 | 0.00 | 88 | 1014.0 |
| 20260905092049 | 75 | 0 | 0.0 | 0.0 | 0.00 | 0.57 | 0.00 | 87 | 1013.9 |
| 20260905091940 | 75 | 0 | 0.0 | 0.0 | 0.00 | 0.57 | 0.00 | 87 | 1014.0 |
| 20260905090834 | 75 | 0 | 0.0 | 0.0 | 0.00 | 0.57 | 0.00 | 87 | 1014.1 |
| 20260905090424 | 75 | 0 | 0.0 | 0.0 | 0.00 | 0.57 | 0.00 | 86 | 1014.1 |
| 20260905084940 | 75 | 0 | 0.0 | 0.0 | 0.00 | 0.57 | 0.00 | 85 | 1014.0 |
| 20260905084904 | 75 | 0 | 0.0 | 0.0 | 0.00 | 0.57 | 0.00 | 85 | 1014.0 |
| 20260905083838 | 76 | 0 | 0.0 | 0.0 | 0.00 | 0.57 | 0.00 | 85 | 1014.0 |
| 20260905082640 | 76 | 0 | 0.0 | 0.0 | 0.00 | 0.57 | 0.00 | 84 | 1013.9 |
| 20260905082321 | 76 | 0 | 0.0 | 0.0 | 0.00 | 0.57 | 0.00 | 84 | 1013.9 |
| 20260905080802 | 76 | 0 | 0.0 | 1.0 | 0.00 | 0.57 | 0.00 | 84 | 1013.7 |
| 20260905080158 | 76 | 0 | 0.0 | 1.0 | 0.00 | 0.57 | 0.00 | 84 | 1013.8 |
| 20260905075927 | 76 | 0 | 0.0 | 1.0 | 0.00 | 0.57 | 0.00 | 84 | 1013.6 |
| 20260905075755 | 76 | 0 | 0.0 | 1.0 | 0.00 | 0.57 | 0.00 | 84 | 1013.6 |
| 20260905073517 | 76 | 204 | 1.0 | 4.0 | 0.00 | 0.57 | 0.00 | 84 | 1012.9 |
| 20260905072918 | 76 | 195 | 1.0 | 4.0 | 0.00 | 0.57 | 0.00 | 84 | 1012.9 |
| 20260905072519 | 76 | 210 | 1.0 | 4.0 | 0.00 | 0.57 | 0.00 | 83 | 1013.0 |
| 20260905071044 | 76 | 221 | 1.0 | 3.0 | 0.00 | 0.57 | 0.00 | 84 | 1013.1 |
| 20260905065939 | 76 | 0 | 0.0 | 2.0 | 0.00 | 0.57 | 0.00 | 84 | 1013.2 |
| 20260905065306 | 76 | 0 | 0.0 | 2.0 | 0.00 | 0.57 | 0.00 | 84 | 1013.3 |
| 20260905064628 | 76 | 0 | 0.0 | 0.0 | 0.00 | 0.57 | 0.00 | 84 | 1013.5 |
| 20260905064433 | 76 | 0 | 0.0 | 2.0 | 0.00 | 0.57 | 0.00 | 84 | 1013.4 |
| 20260905062328 | 76 | 0 | 0.0 | 2.0 | 0.00 | 0.57 | 0.00 | 84 | 1013.8 |
| 20260905061953 | 76 | 0 | 0.0 | 3.0 | 0.00 | 0.57 | 0.00 | 84 | 1013.9 |
| 20260905060841 | 76 | 177 | 1.0 | 4.0 | 0.00 | 0.57 | 0.00 | 84 | 1014.0 |
| 20260905060751 | 76 | 177 | 1.0 | 4.0 | 0.00 | 0.57 | 0.00 | 84 | 1014.0 |
| 20260905053900 | 76 | 180 | 0.0 | 2.0 | 0.00 | 0.57 | 0.00 | 84 | 1014.3 |
| 20260905053035 | 77 | 0 | 0.0 | 2.0 | 0.00 | 0.57 | 0.00 | 83 | 1014.3 |
| 20260905051447 | 77 | 0 | 1.0 | 3.0 | 0.00 | 0.57 | 0.00 | 83 | 1014.5 |
| 20260905045728 | 77 | 180 | 1.0 | 4.0 | 0.00 | 0.57 | 0.00 | 83 | 1014.6 |
| 20260905045538 | 77 | 180 | 1.0 | 4.0 | 0.00 | 0.57 | 0.00 | 83 | 1014.6 |
| 20260905044159 | 77 | 175 | 2.0 | 4.0 | 0.00 | 0.57 | 0.00 | 83 | 1014.6 |
| 20260905043459 | 77 | 171 | 1.0 | 4.0 | 0.00 | 0.57 | 0.00 | 83 | 1014.6 |
| 20260905042941 | 77 | 173 | 2.0 | 4.0 | 0.00 | 0.57 | 0.00 | 83 | 1014.7 |
| 20260905040452 | 77 | 164 | 0.0 | 2.0 | 0.00 | 0.57 | 0.00 | 82 | 1014.8 |
| 20260905035233 | 77 | 164 | 0.0 | 2.0 | 0.00 | 0.57 | 0.57 | 82 | 1014.8 |
| 20260905034832 | 77 | 0 | 0.0 | 2.0 | 0.00 | 0.57 | 0.57 | 82 | 1014.9 |
| 20260905034418 | 77 | 165 | 0.0 | 2.0 | 0.00 | 0.57 | 0.57 | 82 | 1014.8 |
| 20260905033833 | 77 | 0 | 0.0 | 2.0 | 0.00 | 0.57 | 0.57 | 82 | 1014.9 |
| 20260905033622 | 77 | 0 | 0.0 | 2.0 | 0.00 | 0.57 | 0.57 | 82 | 1014.9 |
| 20260905033550 | 77 | 0 | 0.0 | 2.0 | 0.00 | 0.57 | 0.57 | 82 | 1014.9 |
| 20260905033433 | 77 | 0 | 0.0 | 2.0 | 0.00 | 0.57 | 0.57 | 82 | 1014.9 |
| 20260905032602 | 77 | 0 | 0.0 | 1.0 | 0.00 | 0.57 | 0.57 | 82 | 1014.9 |
| 20260905032423 | 77 | 165 | 0.0 | 2.0 | 0.00 | 0.57 | 0.57 | 82 | 1015.0 |
| 20260905023316 | 78 | 159 | 1.0 | 4.0 | 0.00 | 0.57 | 0.57 | 80 | 1014.6 |
| 20260905022626 | 78 | 153 | 1.0 | 3.0 | 0.00 | 0.57 | 0.57 | 80 | 1014.7 |
| 20260905022059 | 78 | 150 | 1.0 | 3.0 | 0.00 | 0.57 | 0.57 | 80 | 1014.8 |
| 20260905021925 | 78 | 142 | 1.0 | 3.0 | 0.00 | 0.57 | 0.57 | 80 | 1014.7 |
| 20260905021322 | 78 | 126 | 1.0 | 4.0 | 0.00 | 0.57 | 0.57 | 80 | 1014.8 |
| 20260905015853 | 78 | 140 | 1.0 | 4.0 | 0.00 | 0.57 | 0.57 | 79 | 1014.7 |
| 20260905015358 | 79 | 153 | 1.0 | 3.0 | 0.00 | 0.57 | 0.57 | 79 | 1014.6 |
| 20260905014757 | 79 | 147 | 0.0 | 2.0 | 0.00 | 0.57 | 0.57 | 79 | 1014.6 |
| 20260905013919 | 79 | 0 | 0.0 | 2.0 | 0.00 | 0.57 | 0.57 | 78 | 1014.5 |
| 20260905013800 | 79 | 0 | 0.0 | 2.0 | 0.00 | 0.57 | 0.57 | 78 | 1014.5 |
| 20260905013528 | 79 | 0 | 0.0 | 2.0 | 0.00 | 0.57 | 0.57 | 78 | 1014.5 |
| 20260905013525 | 79 | 0 | 0.0 | 3.0 | 0.00 | 0.57 | 0.57 | 78 | 1014.4 |
| 20260905013430 | 79 | 0 | 0.0 | 3.0 | 0.00 | 0.57 | 0.57 | 78 | 1014.4 |
| 20260905013037 | 79 | 149 | 0.0 | 5.0 | 0.00 | 0.57 | 0.57 | 78 | 1014.4 |
| 20260905012519 | 80 | 151 | 1.0 | 5.0 | 0.00 | 0.57 | 0.57 | 77 | 1014.4 |
| 20260905012020 | 80 | 0 | 0.0 | 2.0 | 0.00 | 0.57 | 0.57 | 77 | 1014.4 |
| 20260905011819 | 80 | 0 | 0.0 | 2.0 | 0.00 | 0.57 | 0.57 | 77 | 1014.4 |
| 20260905010837 | 80 | 139 | 0.0 | 3.0 | 0.00 | 0.57 | 0.57 | 77 | 1014.4 |
| 20260905005748 | 80 | 134 | 1.0 | 3.0 | 0.00 | 0.57 | 0.57 | 76 | 1014.3 |
| 20260905005337 | 80 | 126 | 0.0 | 1.0 | 0.00 | 0.57 | 0.57 | 77 | 1014.3 |
| 20260905005236 | 80 | 126 | 0.0 | 1.0 | 0.00 | 0.57 | 0.57 | 77 | 1014.3 |
| 20260905004938 | 80 | 0 | 0.0 | 2.0 | 0.00 | 0.57 | 0.57 | 77 | 1014.3 |
| 20260905004028 | 80 | 0 | 0.0 | 2.0 | 0.00 | 0.57 | 0.57 | 75 | 1014.3 |
| 20260905003450 | 81 | 0 | 0.0 | 1.0 | 0.00 | 0.57 | 0.57 | 75 | 1014.4 |
| 20260905002555 | 81 | 0 | 0.0 | 4.0 | 0.00 | 0.57 | 0.57 | 75 | 1014.3 |
| 20260905002147 | 81 | 0 | 0.0 | 4.0 | 0.00 | 0.57 | 0.57 | 75 | 1014.3 |
| 20260905001932 | 81 | 126 | 1.0 | 4.0 | 0.00 | 0.57 | 0.57 | 75 | 1014.3 |
| 20260905000521 | 81 | 155 | 1.0 | 3.0 | 0.00 | 0.57 | 0.57 | 75 | 1014.3 |
| 20260904235415 | 81 | 0 | 0.0 | 7.0 | 0.00 | 0.57 | 0.57 | 75 | 1014.4 |
| 20260904234731 | 82 | 121 | 1.0 | 7.0 | 0.00 | 0.57 | 0.57 | 75 | 1014.4 |
| 20260904233403 | 82 | 113 | 0.0 | 2.0 | 0.00 | 0.57 | 0.57 | 75 | 1014.3 |
| 20260904230425 | 83 | 96 | 1.0 | 8.0 | 0.00 | 0.57 | 0.57 | 73 | 1014.3 |
| 20260904223941 | 83 | 104 | 3.0 | 10.0 | 0.00 | 0.57 | 0.57 | 72 | 1014.5 |
| 20260904222449 | 84 | 86 | 2.0 | 6.0 | 0.00 | 0.57 | 0.57 | 72 | 1014.5 |
| 20260904221104 | 84 | 155 | 2.0 | 5.0 | 0.00 | 0.57 | 0.57 | 71 | 1014.4 |
| 20260904220323 | 86 | 71 | 2.0 | 8.0 | 0.00 | 0.57 | 0.57 | 72 | 1014.2 |
| 20260904214345 | 87 | 163 | 2.0 | 8.0 | 0.01 | 0.57 | 0.57 | 71 | 1014.0 |
| 20260904213340 | 88 | 44 | 2.0 | 4.0 | 0.01 | 0.57 | 0.57 | 65 | 1014.2 |
| 20260904213043 | 89 | 67 | 2.0 | 4.0 | 0.01 | 0.57 | 0.57 | 62 | 1014.4 |
| 20260904211747 | 89 | 0 | 1.0 | 5.0 | 0.01 | 0.57 | 0.57 | 62 | 1014.4 |
| 20260904211358 | 89 | 159 | 2.0 | 5.0 | 0.01 | 0.57 | 0.57 | 69 | 1014.3 |
| 20260904210823 | 88 | 155 | 0.0 | 3.0 | 0.01 | 0.57 | 0.57 | 67 | 1014.4 |
| 20260904204901 | 84 | 157 | 0.0 | 3.0 | 0.12 | 0.56 | 0.56 | 77 | 1014.7 |
| 20260904204428 | 83 | 0 | 0.0 | 1.0 | 0.30 | 0.56 | 0.56 | 80 | 1014.7 |
| 20260904203826 | 82 | 0 | 0.0 | 2.0 | 0.47 | 0.56 | 0.56 | 87 | 1014.8 |
| 20260904202841 | 80 | 0 | 0.0 | 2.0 | 0.56 | 0.56 | 0.56 | 87 | 1014.9 |
| 20260904202110 | 79 | 0 | 0.0 | 2.0 | 0.56 | 0.56 | 0.56 | 90 | 1015.0 |
| 20260904201929 | 77 | 0 | 0.0 | 6.0 | 0.56 | 0.56 | 0.56 | 88 | 1014.9 |
| 20260904201351 | 77 | 0 | 1.0 | 6.0 | 0.56 | 0.56 | 0.56 | 88 | 1015.0 |
| 20260904194841 | 76 | 188 | 4.0 | 33.0 | 0.42 | 0.42 | 0.42 | 76 | 1016.7 |